KLM617 EHAM-KBOS
Flight info
| Callsign | KLM617 |
|---|---|
| Flight time | N/A |
| Altitude | 34000 |
| Route | BERGI L602 NALAX L46 GETNO DCT NIBOG DCT ETARI DCT MELDI DCT DANOL DCT AJJAY OOSHN5 |
| Aircraft | B77W/H-SDE1E2E3FGHIJ2J3J4J5M1RWXY/LB1D1 |
Departure
| Time | 2026-04-29 15:59 |
|---|---|
| Airport | Amsterdam Airport Schiphol (EHAM) |
Arrival
| Time | N/A |
|---|---|
| Airport | Boston Logan International Airport (KBOS) |
| Time | Latitude | Longitude | Altitude | Speed | Heading |
|---|---|---|---|---|---|
| 2026-04-29 15:32 | 52.31380 | 4.76733 | 5 ft | 0 kts | 123° |
| 2026-04-29 15:44 | 52.31388 | 4.76713 | 5 ft | 2 kts | 123° |
| 2026-04-29 15:45 | 52.31393 | 4.76701 | 5 ft | 2 kts | 122° |
| 2026-04-29 15:45 | 52.31399 | 4.76679 | 5 ft | 2 kts | 107° |
| 2026-04-29 15:45 | 52.31403 | 4.76655 | 5 ft | 2 kts | 94° |
| 2026-04-29 15:45 | 52.31402 | 4.76631 | 5 ft | 2 kts | 81° |
| 2026-04-29 15:46 | 52.31399 | 4.76607 | 5 ft | 2 kts | 69° |
| 2026-04-29 15:46 | 52.31392 | 4.76585 | 5 ft | 2 kts | 56° |
| 2026-04-29 15:46 | 52.31382 | 4.76566 | 5 ft | 2 kts | 43° |
| 2026-04-29 15:46 | 52.31376 | 4.76556 | 5 ft | 1 kts | 36° |
| 2026-04-29 15:47 | 52.31375 | 4.76556 | 5 ft | 0 kts | 36° |
| 2026-04-29 15:48 | 52.31376 | 4.76556 | 5 ft | 0 kts | 36° |
| 2026-04-29 15:49 | 52.31393 | 4.76570 | 5 ft | 4 kts | 11° |
| 2026-04-29 15:49 | 52.31426 | 4.76539 | 5 ft | 8 kts | 310° |
| 2026-04-29 15:49 | 52.31469 | 4.76443 | 5 ft | 12 kts | 303° |
| 2026-04-29 15:49 | 52.31522 | 4.76302 | 5 ft | 16 kts | 299° |
| 2026-04-29 15:50 | 52.31534 | 4.76096 | 5 ft | 20 kts | 267° |
| 2026-04-29 15:50 | 52.31524 | 4.75850 | 5 ft | 22 kts | 266° |
| 2026-04-29 15:50 | 52.31514 | 4.75588 | 5 ft | 23 kts | 267° |
| 2026-04-29 15:50 | 52.31505 | 4.75305 | 5 ft | 25 kts | 268° |
| 2026-04-29 15:51 | 52.31498 | 4.75012 | 5 ft | 26 kts | 268° |
| 2026-04-29 15:51 | 52.31482 | 4.74723 | 5 ft | 25 kts | 266° |
| 2026-04-29 15:51 | 52.31475 | 4.74446 | 5 ft | 19 kts | 268° |
| 2026-04-29 15:51 | 52.31476 | 4.74322 | 5 ft | 9 kts | 296° |
| 2026-04-29 15:52 | 52.31537 | 4.74290 | 5 ft | 9 kts | 1° |
| 2026-04-29 15:52 | 52.31602 | 4.74295 | 5 ft | 9 kts | 3° |
| 2026-04-29 15:52 | 52.31674 | 4.74300 | 5 ft | 11 kts | 3° |
| 2026-04-29 15:52 | 52.31756 | 4.74308 | 5 ft | 12 kts | 4° |
| 2026-04-29 15:53 | 52.31848 | 4.74317 | 5 ft | 13 kts | 4° |
| 2026-04-29 15:53 | 52.31950 | 4.74329 | 5 ft | 15 kts | 4° |
| 2026-04-29 15:53 | 52.32026 | 4.74259 | 5 ft | 14 kts | 281° |
| 2026-04-29 15:53 | 52.32035 | 4.74079 | 5 ft | 16 kts | 274° |
| 2026-04-29 15:54 | 52.32037 | 4.73878 | 5 ft | 18 kts | 270° |
| 2026-04-29 15:54 | 52.32044 | 4.73660 | 5 ft | 19 kts | 275° |
| 2026-04-29 15:54 | 52.32060 | 4.73430 | 5 ft | 20 kts | 287° |
| 2026-04-29 15:54 | 52.32156 | 4.73255 | 5 ft | 21 kts | 320° |
| 2026-04-29 15:55 | 52.32269 | 4.73095 | 5 ft | 21 kts | 318° |
| 2026-04-29 15:55 | 52.32384 | 4.72927 | 5 ft | 22 kts | 319° |
| 2026-04-29 15:55 | 52.32504 | 4.72757 | 5 ft | 23 kts | 320° |
| 2026-04-29 15:55 | 52.32629 | 4.72585 | 5 ft | 23 kts | 321° |
| 2026-04-29 15:56 | 52.32742 | 4.72397 | 5 ft | 23 kts | 311° |
| 2026-04-29 15:56 | 52.32852 | 4.72189 | 5 ft | 24 kts | 311° |
| 2026-04-29 15:56 | 52.32965 | 4.71978 | 5 ft | 24 kts | 312° |
| 2026-04-29 15:56 | 52.33076 | 4.71777 | 5 ft | 23 kts | 313° |
| 2026-04-29 15:57 | 52.33150 | 4.71580 | 5 ft | 16 kts | 270° |
| 2026-04-29 15:57 | 52.33088 | 4.71423 | 5 ft | 17 kts | 221° |
| 2026-04-29 15:57 | 52.32994 | 4.71296 | 5 ft | 17 kts | 219° |
| 2026-04-29 15:57 | 52.32900 | 4.71166 | 5 ft | 17 kts | 222° |
| 2026-04-29 15:58 | 52.32858 | 4.70985 | 5 ft | 17 kts | 272° |
| 2026-04-29 15:58 | 52.32890 | 4.70887 | 5 ft | 6 kts | 340° |
| 2026-04-29 15:58 | 52.32933 | 4.70886 | 5 ft | 6 kts | 5° |
| 2026-04-29 15:58 | 52.33069 | 4.70902 | 5 ft | 50 kts | 4° |
| 2026-04-29 15:59 | 52.33656 | 4.70953 | 5 ft | 116 kts | 4° |
| 2026-04-29 15:59 | 52.34665 | 4.71040 | 14 ft | 171 kts | 5° |
| 2026-04-29 15:59 | 52.35956 | 4.71117 | 264 ft | 199 kts | 6° |
| 2026-04-29 15:59 | 52.37335 | 4.71176 | 1265 ft | 197 kts | 3° |
| 2026-04-29 16:00 | 52.38594 | 4.71164 | 2122 ft | 186 kts | 11° |
| 2026-04-29 16:00 | 52.39931 | 4.71515 | 2513 ft | 202 kts | 11° |
| 2026-04-29 16:00 | 52.41371 | 4.71735 | 2983 ft | 217 kts | 7° |
| 2026-04-29 16:00 | 52.42928 | 4.71883 | 3495 ft | 232 kts | 7° |
| 2026-04-29 16:01 | 52.44586 | 4.72046 | 4028 ft | 246 kts | 7° |
| 2026-04-29 16:01 | 52.46330 | 4.72218 | 4677 ft | 255 kts | 7° |
| 2026-04-29 16:01 | 52.48111 | 4.72391 | 5375 ft | 261 kts | 8° |
| 2026-04-29 16:01 | 52.49937 | 4.72571 | 6065 ft | 266 kts | 8° |
| 2026-04-29 16:02 | 52.51806 | 4.72751 | 6782 ft | 271 kts | 8° |
| 2026-04-29 16:02 | 52.53680 | 4.72931 | 7531 ft | 274 kts | 8° |
| 2026-04-29 16:02 | 52.55571 | 4.73116 | 8256 ft | 277 kts | 8° |
| 2026-04-29 16:02 | 52.57519 | 4.73094 | 8944 ft | 286 kts | 353° |
| 2026-04-29 16:03 | 52.59390 | 4.71833 | 9589 ft | 298 kts | 327° |
| 2026-04-29 16:03 | 52.60841 | 4.69378 | 10268 ft | 306 kts | 310° |
| 2026-04-29 16:03 | 52.62075 | 4.66512 | 10812 ft | 316 kts | 307° |
| 2026-04-29 16:03 | 52.63348 | 4.63436 | 11199 ft | 332 kts | 307° |
| 2026-04-29 16:04 | 52.64663 | 4.60286 | 11618 ft | 347 kts | 307° |
| 2026-04-29 16:04 | 52.66071 | 4.56923 | 12083 ft | 361 kts | 308° |
| 2026-04-29 16:04 | 52.67516 | 4.53480 | 12562 ft | 375 kts | 308° |
| 2026-04-29 16:04 | 52.69015 | 4.49912 | 13066 ft | 388 kts | 308° |
| 2026-04-29 16:05 | 52.70578 | 4.46187 | 13603 ft | 401 kts | 308° |
| 2026-04-29 16:05 | 52.72168 | 4.42385 | 14303 ft | 408 kts | 308° |
| 2026-04-29 16:05 | 52.73781 | 4.38518 | 15106 ft | 413 kts | 308° |
| 2026-04-29 16:05 | 52.75348 | 4.34518 | 15905 ft | 419 kts | 302° |
| 2026-04-29 16:06 | 52.76773 | 4.30368 | 16676 ft | 424 kts | 301° |
| 2026-04-29 16:06 | 52.78221 | 4.26093 | 17448 ft | 429 kts | 302° |
| 2026-04-29 16:06 | 52.79670 | 4.21809 | 18201 ft | 433 kts | 302° |
| 2026-04-29 16:06 | 52.81142 | 4.17457 | 18948 ft | 437 kts | 302° |
| 2026-04-29 16:07 | 52.82622 | 4.13072 | 19681 ft | 442 kts | 302° |
| 2026-04-29 16:07 | 52.84107 | 4.08666 | 20371 ft | 447 kts | 302° |
| 2026-04-29 16:07 | 52.85628 | 4.04145 | 21058 ft | 452 kts | 302° |
| 2026-04-29 16:07 | 52.87156 | 3.99597 | 21731 ft | 457 kts | 302° |
| 2026-04-29 16:08 | 52.88699 | 3.95000 | 22377 ft | 462 kts | 302° |
| 2026-04-29 16:08 | 52.90239 | 3.90402 | 22980 ft | 467 kts | 302° |
| 2026-04-29 16:08 | 52.91823 | 3.85664 | 23580 ft | 472 kts | 302° |
| 2026-04-29 16:08 | 52.93400 | 3.80938 | 24165 ft | 477 kts | 302° |
| 2026-04-29 16:09 | 52.95007 | 3.76112 | 24756 ft | 482 kts | 302° |
| 2026-04-29 16:09 | 52.96626 | 3.71240 | 25359 ft | 486 kts | 302° |
| 2026-04-29 16:09 | 52.98272 | 3.66279 | 25961 ft | 491 kts | 302° |
| 2026-04-29 16:09 | 52.99914 | 3.61322 | 26541 ft | 495 kts | 302° |
| 2026-04-29 16:10 | 53.01567 | 3.56325 | 27116 ft | 499 kts | 302° |
| 2026-04-29 16:10 | 53.03225 | 3.51295 | 27684 ft | 503 kts | 302° |
| 2026-04-29 16:10 | 53.04911 | 3.46167 | 28256 ft | 508 kts | 302° |
| 2026-04-29 16:10 | 53.06583 | 3.41073 | 28805 ft | 512 kts | 302° |
| 2026-04-29 16:11 | 53.08281 | 3.35886 | 29351 ft | 516 kts | 302° |
| 2026-04-29 16:11 | 53.09812 | 3.30410 | 29928 ft | 522 kts | 292° |
| 2026-04-29 16:11 | 53.10849 | 3.24633 | 30650 ft | 524 kts | 285° |
| 2026-04-29 16:11 | 53.11641 | 3.18836 | 31468 ft | 520 kts | 284° |
| 2026-04-29 16:12 | 53.12420 | 3.12949 | 32258 ft | 517 kts | 284° |
| 2026-04-29 16:12 | 53.12930 | 3.09074 | 32750 ft | 515 kts | 284° |
| 2026-04-29 16:12 | 53.13939 | 3.01393 | 33681 ft | 513 kts | 284° |
| 2026-04-29 16:12 | 53.14697 | 2.95598 | 34334 ft | 512 kts | 284° |
| 2026-04-29 16:13 | 53.15464 | 2.89721 | 34524 ft | 516 kts | 284° |
| 2026-04-29 16:13 | 53.16983 | 2.77997 | 34543 ft | 507 kts | 284° |
| 2026-04-29 16:14 | 53.18462 | 2.66503 | 34375 ft | 501 kts | 284° |
| 2026-04-29 16:14 | 53.19927 | 2.55035 | 34322 ft | 507 kts | 284° |
| 2026-04-29 16:15 | 53.21376 | 2.43596 | 34370 ft | 507 kts | 284° |
| 2026-04-29 16:15 | 53.22828 | 2.32033 | 34382 ft | 506 kts | 283° |
| 2026-04-29 16:16 | 53.24250 | 2.20612 | 34381 ft | 506 kts | 283° |
| 2026-04-29 16:16 | 53.25673 | 2.09097 | 34389 ft | 506 kts | 283° |
| 2026-04-29 16:17 | 53.27081 | 1.97599 | 34395 ft | 505 kts | 283° |
| 2026-04-29 16:17 | 53.28478 | 1.86095 | 34396 ft | 505 kts | 283° |
| 2026-04-29 16:18 | 53.29852 | 1.74674 | 34395 ft | 505 kts | 283° |
| 2026-04-29 16:18 | 53.31230 | 1.63131 | 34395 ft | 505 kts | 282° |
| 2026-04-29 16:19 | 53.32589 | 1.51649 | 34399 ft | 505 kts | 282° |
| 2026-04-29 16:19 | 53.34174 | 1.40271 | 34401 ft | 505 kts | 285° |
| 2026-04-29 16:20 | 53.35852 | 1.28890 | 34397 ft | 505 kts | 284° |
| 2026-04-29 16:20 | 53.37513 | 1.17455 | 34398 ft | 506 kts | 284° |
| 2026-04-29 16:21 | 53.39149 | 1.06052 | 34398 ft | 506 kts | 284° |
| 2026-04-29 16:21 | 53.40770 | 0.94644 | 34394 ft | 506 kts | 284° |
| 2026-04-29 16:22 | 53.42382 | 0.83200 | 34390 ft | 506 kts | 284° |
| 2026-04-29 16:22 | 53.43985 | 0.71732 | 34391 ft | 506 kts | 284° |
| 2026-04-29 16:23 | 53.45578 | 0.60237 | 34394 ft | 506 kts | 284° |
| 2026-04-29 16:23 | 53.47159 | 0.48728 | 34399 ft | 507 kts | 283° |
| 2026-04-29 16:24 | 53.48721 | 0.37276 | 34405 ft | 507 kts | 283° |
| 2026-04-29 16:24 | 53.50277 | 0.25779 | 34402 ft | 507 kts | 283° |
| 2026-04-29 16:25 | 53.51821 | 0.14274 | 34402 ft | 508 kts | 283° |
| 2026-04-29 16:25 | 53.53355 | 0.02739 | 34405 ft | 507 kts | 283° |
| 2026-04-29 16:26 | 53.54891 | -0.08877 | 34414 ft | 507 kts | 282° |
| 2026-04-29 16:26 | 53.56411 | -0.20469 | 34422 ft | 510 kts | 282° |
| 2026-04-29 16:27 | 53.57921 | -0.32084 | 34421 ft | 512 kts | 281° |
| 2026-04-29 16:27 | 53.59427 | -0.43764 | 34426 ft | 511 kts | 281° |
| 2026-04-29 16:28 | 53.60914 | -0.55396 | 34433 ft | 512 kts | 281° |
| 2026-04-29 16:28 | 53.62397 | -0.67099 | 34431 ft | 512 kts | 281° |
| 2026-04-29 16:29 | 53.63866 | -0.78783 | 34425 ft | 512 kts | 281° |
| 2026-04-29 16:29 | 53.65327 | -0.90495 | 34411 ft | 512 kts | 281° |
| 2026-04-29 16:30 | 53.66777 | -1.02237 | 34393 ft | 512 kts | 281° |
| 2026-04-29 16:30 | 53.68209 | -1.13917 | 34366 ft | 511 kts | 281° |
| 2026-04-29 16:31 | 53.69627 | -1.25592 | 34339 ft | 511 kts | 281° |
| 2026-04-29 16:31 | 53.71047 | -1.37383 | 34332 ft | 512 kts | 281° |
| 2026-04-29 16:32 | 53.72442 | -1.49068 | 34331 ft | 512 kts | 281° |
| 2026-04-29 16:32 | 53.73832 | -1.60876 | 34345 ft | 512 kts | 280° |
| 2026-04-29 16:33 | 53.75763 | -1.78619 | 34364 ft | 512 kts | 279° |
| 2026-04-29 16:33 | 53.77032 | -1.90424 | 34377 ft | 512 kts | 279° |
| 2026-04-29 16:34 | 53.78295 | -2.02271 | 34381 ft | 512 kts | 279° |
| 2026-04-29 16:34 | 53.79539 | -2.14052 | 34377 ft | 512 kts | 279° |
| 2026-04-29 16:35 | 53.80782 | -2.25920 | 34372 ft | 512 kts | 279° |
| 2026-04-29 16:35 | 53.82009 | -2.37760 | 34367 ft | 512 kts | 279° |
| 2026-04-29 16:36 | 53.83232 | -2.49682 | 34367 ft | 511 kts | 279° |
| 2026-04-29 16:36 | 53.84426 | -2.61442 | 34370 ft | 511 kts | 279° |
| 2026-04-29 16:37 | 53.85617 | -2.73294 | 34364 ft | 512 kts | 278° |
| 2026-04-29 16:37 | 53.86599 | -2.83148 | 34359 ft | 512 kts | 278° |
| 2026-04-29 16:38 | 53.87968 | -2.97046 | 34351 ft | 513 kts | 278° |
| 2026-04-29 16:38 | 53.89125 | -3.08922 | 34350 ft | 513 kts | 278° |
| 2026-04-29 16:39 | 53.90272 | -3.20828 | 34349 ft | 514 kts | 278° |
| 2026-04-29 16:39 | 53.91406 | -3.32728 | 34350 ft | 514 kts | 278° |
| 2026-04-29 16:40 | 53.92534 | -3.44694 | 34349 ft | 515 kts | 278° |
| 2026-04-29 16:40 | 53.94270 | -3.56484 | 34352 ft | 517 kts | 288° |
| 2026-04-29 16:41 | 53.96544 | -3.68019 | 34346 ft | 517 kts | 288° |
| 2026-04-29 16:41 | 53.98805 | -3.79588 | 34343 ft | 518 kts | 288° |
| 2026-04-29 16:42 | 54.01049 | -3.91181 | 34344 ft | 518 kts | 288° |
| 2026-04-29 16:42 | 54.03266 | -4.02727 | 34344 ft | 519 kts | 288° |
| 2026-04-29 16:43 | 54.05484 | -4.14362 | 34348 ft | 519 kts | 288° |
| 2026-04-29 16:43 | 54.07697 | -4.26052 | 34348 ft | 519 kts | 288° |
| 2026-04-29 16:44 | 54.09896 | -4.37745 | 34350 ft | 519 kts | 288° |
| 2026-04-29 16:44 | 54.12078 | -4.49422 | 34350 ft | 519 kts | 288° |
| 2026-04-29 16:45 | 54.14260 | -4.61165 | 34352 ft | 519 kts | 288° |
| 2026-04-29 16:45 | 54.16414 | -4.72840 | 34347 ft | 518 kts | 287° |
| 2026-04-29 16:46 | 54.18567 | -4.84587 | 34347 ft | 518 kts | 287° |
| 2026-04-29 16:46 | 54.20705 | -4.96324 | 34348 ft | 518 kts | 287° |
| 2026-04-29 16:47 | 54.22822 | -5.08016 | 34350 ft | 519 kts | 287° |
| 2026-04-29 16:47 | 54.24939 | -5.19787 | 34353 ft | 519 kts | 287° |
| 2026-04-29 16:48 | 54.27043 | -5.31564 | 34355 ft | 519 kts | 287° |
| 2026-04-29 16:48 | 54.29123 | -5.43279 | 34358 ft | 520 kts | 287° |
| 2026-04-29 16:49 | 54.31217 | -5.55147 | 34361 ft | 521 kts | 287° |
| 2026-04-29 16:49 | 54.33304 | -5.67053 | 34363 ft | 522 kts | 287° |
| 2026-04-29 16:50 | 54.35376 | -5.78958 | 34354 ft | 522 kts | 287° |
| 2026-04-29 16:50 | 54.37422 | -5.90794 | 34345 ft | 523 kts | 287° |
| 2026-04-29 16:51 | 54.39476 | -6.02757 | 34341 ft | 523 kts | 287° |
| 2026-04-29 16:51 | 54.41508 | -6.14666 | 34344 ft | 524 kts | 287° |
| 2026-04-29 16:52 | 54.43542 | -6.26676 | 34349 ft | 524 kts | 287° |
| 2026-04-29 16:52 | 54.45550 | -6.38603 | 34351 ft | 524 kts | 287° |
| 2026-04-29 16:53 | 54.47559 | -6.50619 | 34352 ft | 523 kts | 287° |
| 2026-04-29 16:53 | 54.49552 | -6.62624 | 34352 ft | 523 kts | 287° |
| 2026-04-29 16:54 | 54.51534 | -6.74650 | 34346 ft | 522 kts | 285° |
| 2026-04-29 16:54 | 54.53498 | -6.86652 | 34346 ft | 522 kts | 285° |
| 2026-04-29 16:55 | 54.55452 | -6.98673 | 34347 ft | 521 kts | 285° |
| 2026-04-29 16:55 | 54.57384 | -7.10645 | 34348 ft | 521 kts | 285° |
| 2026-04-29 16:56 | 54.59307 | -7.22642 | 34349 ft | 521 kts | 285° |
| 2026-04-29 16:56 | 54.61224 | -7.34690 | 34350 ft | 522 kts | 285° |
| 2026-04-29 16:57 | 54.63126 | -7.46731 | 34351 ft | 522 kts | 285° |
| 2026-04-29 16:57 | 54.65020 | -7.58806 | 34349 ft | 523 kts | 285° |
| 2026-04-29 16:58 | 54.66909 | -7.70941 | 34338 ft | 523 kts | 285° |
| 2026-04-29 16:58 | 54.68782 | -7.83059 | 34338 ft | 524 kts | 285° |
| 2026-04-29 16:59 | 54.70651 | -7.95247 | 34342 ft | 524 kts | 285° |
| 2026-04-29 16:59 | 54.72503 | -8.07407 | 34346 ft | 525 kts | 285° |
| 2026-04-29 17:00 | 54.74330 | -8.19500 | 34343 ft | 524 kts | 285° |
| 2026-04-29 17:00 | 54.76163 | -8.31722 | 34338 ft | 524 kts | 285° |
| 2026-04-29 17:01 | 54.77963 | -8.43811 | 34334 ft | 523 kts | 285° |
| 2026-04-29 17:01 | 54.79767 | -8.56022 | 34331 ft | 523 kts | 285° |
| 2026-04-29 17:02 | 54.81547 | -8.68166 | 34322 ft | 522 kts | 284° |
| 2026-04-29 17:02 | 54.83316 | -8.80325 | 34315 ft | 521 kts | 284° |
| 2026-04-29 17:03 | 54.85062 | -8.92430 | 34313 ft | 520 kts | 284° |
| 2026-04-29 17:03 | 54.86809 | -9.04623 | 34311 ft | 519 kts | 284° |
| 2026-04-29 17:04 | 54.88520 | -9.16670 | 34312 ft | 518 kts | 284° |
| 2026-04-29 17:04 | 54.90237 | -9.28852 | 34312 ft | 517 kts | 284° |
| 2026-04-29 17:05 | 54.91925 | -9.40915 | 34313 ft | 517 kts | 284° |
| 2026-04-29 17:05 | 54.93608 | -9.53046 | 34312 ft | 517 kts | 284° |
| 2026-04-29 17:06 | 54.95283 | -9.65210 | 34312 ft | 517 kts | 283° |
| 2026-04-29 17:06 | 54.96944 | -9.77373 | 34305 ft | 516 kts | 283° |
| 2026-04-29 17:07 | 54.98587 | -9.89502 | 34307 ft | 517 kts | 283° |
| 2026-04-29 17:07 | 55.00189 | -10.01664 | 34311 ft | 516 kts | 282° |
| 2026-04-29 17:08 | 55.01683 | -10.13935 | 34313 ft | 516 kts | 282° |
| 2026-04-29 17:08 | 55.03158 | -10.26197 | 34312 ft | 515 kts | 282° |
| 2026-04-29 17:09 | 55.04615 | -10.38427 | 34311 ft | 514 kts | 282° |
| 2026-04-29 17:09 | 55.06049 | -10.50582 | 34312 ft | 513 kts | 282° |
| 2026-04-29 17:10 | 55.07478 | -10.62805 | 34314 ft | 513 kts | 282° |
| 2026-04-29 17:10 | 55.08883 | -10.74953 | 34309 ft | 512 kts | 281° |
| 2026-04-29 17:11 | 55.10290 | -10.87211 | 34305 ft | 512 kts | 281° |
| 2026-04-29 17:11 | 55.11671 | -10.99364 | 34302 ft | 511 kts | 281° |
| 2026-04-29 17:12 | 55.13041 | -11.11537 | 34299 ft | 511 kts | 281° |
| 2026-04-29 17:12 | 55.14171 | -11.21663 | 34297 ft | 511 kts | 281° |
| 2026-04-29 17:13 | 55.15731 | -11.35787 | 34296 ft | 510 kts | 281° |
| 2026-04-29 17:13 | 55.17054 | -11.47885 | 34297 ft | 509 kts | 281° |
| 2026-04-29 17:14 | 55.18366 | -11.59994 | 34298 ft | 509 kts | 281° |
| 2026-04-29 17:14 | 55.19669 | -11.72153 | 34295 ft | 508 kts | 279° |
| 2026-04-29 17:15 | 55.20956 | -11.84275 | 34295 ft | 507 kts | 279° |
| 2026-04-29 17:15 | 55.22227 | -11.96367 | 34296 ft | 506 kts | 279° |
| 2026-04-29 17:16 | 55.23489 | -12.08503 | 34297 ft | 505 kts | 279° |
| 2026-04-29 17:16 | 55.24724 | -12.20494 | 34298 ft | 504 kts | 279° |
| 2026-04-29 17:17 | 55.25958 | -12.32593 | 34298 ft | 503 kts | 279° |
| 2026-04-29 17:17 | 55.27167 | -12.44576 | 34299 ft | 502 kts | 279° |
| 2026-04-29 17:18 | 55.28368 | -12.56597 | 34299 ft | 502 kts | 279° |
| 2026-04-29 17:18 | 55.29556 | -12.68631 | 34297 ft | 502 kts | 278° |
| 2026-04-29 17:19 | 55.30729 | -12.80632 | 34296 ft | 502 kts | 278° |
| 2026-04-29 17:19 | 55.31891 | -12.92646 | 34296 ft | 502 kts | 278° |
| 2026-04-29 17:20 | 55.33046 | -13.04712 | 34290 ft | 501 kts | 278° |
| 2026-04-29 17:20 | 55.34191 | -13.16808 | 34282 ft | 501 kts | 278° |
| 2026-04-29 17:21 | 55.35321 | -13.28883 | 34280 ft | 500 kts | 278° |
| 2026-04-29 17:21 | 55.36431 | -13.40874 | 34281 ft | 499 kts | 278° |
| 2026-04-29 17:22 | 55.37533 | -13.52916 | 34282 ft | 499 kts | 278° |
| 2026-04-29 17:22 | 55.38618 | -13.64907 | 34282 ft | 498 kts | 278° |
| 2026-04-29 17:23 | 55.39686 | -13.76842 | 34278 ft | 496 kts | 277° |
| 2026-04-29 17:23 | 55.40745 | -13.88806 | 34277 ft | 495 kts | 277° |
| 2026-04-29 17:24 | 55.41782 | -14.00667 | 34277 ft | 494 kts | 277° |
| 2026-04-29 17:24 | 55.42809 | -14.12544 | 34277 ft | 493 kts | 277° |
| 2026-04-29 17:25 | 55.43826 | -14.24452 | 34276 ft | 492 kts | 277° |
| 2026-04-29 17:25 | 55.44822 | -14.36258 | 34276 ft | 491 kts | 277° |
| 2026-04-29 17:26 | 55.45813 | -14.48135 | 34276 ft | 491 kts | 277° |
| 2026-04-29 17:26 | 55.46789 | -14.59984 | 34276 ft | 490 kts | 277° |
| 2026-04-29 17:27 | 55.47758 | -14.71889 | 34273 ft | 490 kts | 276° |
| 2026-04-29 17:27 | 55.48714 | -14.83785 | 34273 ft | 491 kts | 276° |
| 2026-04-29 17:28 | 55.49656 | -14.95652 | 34272 ft | 490 kts | 276° |
| 2026-04-29 17:28 | 55.50726 | -15.07504 | 34273 ft | 490 kts | 279° |
| 2026-04-29 17:29 | 55.52018 | -15.19307 | 34271 ft | 490 kts | 279° |
| 2026-04-29 17:29 | 55.53076 | -15.29147 | 34271 ft | 490 kts | 279° |
| 2026-04-29 17:30 | 55.54521 | -15.42826 | 34253 ft | 488 kts | 279° |
| 2026-04-29 17:30 | 55.55741 | -15.54545 | 34230 ft | 487 kts | 279° |
| 2026-04-29 17:31 | 55.56953 | -15.66329 | 34223 ft | 486 kts | 278° |
| 2026-04-29 17:31 | 55.58138 | -15.77979 | 34223 ft | 484 kts | 278° |
| 2026-04-29 17:32 | 55.59322 | -15.89747 | 34223 ft | 483 kts | 278° |
| 2026-04-29 17:32 | 55.60478 | -16.01360 | 34221 ft | 482 kts | 278° |
| 2026-04-29 17:33 | 55.61626 | -16.13011 | 34179 ft | 482 kts | 278° |
| 2026-04-29 17:33 | 55.62758 | -16.24623 | 34125 ft | 481 kts | 278° |
| 2026-04-29 17:34 | 55.63881 | -16.36254 | 34095 ft | 481 kts | 278° |
| 2026-04-29 17:34 | 55.64991 | -16.47881 | 34075 ft | 481 kts | 278° |
| 2026-04-29 17:35 | 55.66635 | -16.65325 | 34072 ft | 481 kts | 277° |
| 2026-04-29 17:36 | 55.67723 | -16.77032 | 34073 ft | 481 kts | 277° |
| 2026-04-29 17:36 | 55.68793 | -16.88660 | 34072 ft | 481 kts | 277° |
| 2026-04-29 17:37 | 55.69854 | -17.00315 | 34071 ft | 481 kts | 277° |
| 2026-04-29 17:37 | 55.70902 | -17.11953 | 34070 ft | 481 kts | 277° |
| 2026-04-29 17:38 | 55.71943 | -17.23647 | 34070 ft | 481 kts | 277° |
| 2026-04-29 17:38 | 55.72970 | -17.35319 | 34071 ft | 480 kts | 277° |
| 2026-04-29 17:39 | 55.73989 | -17.47037 | 34072 ft | 480 kts | 277° |
| 2026-04-29 17:39 | 55.74992 | -17.58679 | 34071 ft | 479 kts | 276° |
| 2026-04-29 17:40 | 55.75985 | -17.70345 | 34070 ft | 477 kts | 276° |
| 2026-04-29 17:40 | 55.76960 | -17.81947 | 34069 ft | 477 kts | 275° |
| 2026-04-29 17:41 | 55.77922 | -17.93529 | 34068 ft | 476 kts | 275° |
| 2026-04-29 17:41 | 55.78873 | -18.05129 | 34067 ft | 476 kts | 275° |
| 2026-04-29 17:42 | 55.79812 | -18.16690 | 34066 ft | 475 kts | 275° |
| 2026-04-29 17:42 | 55.80734 | -18.28206 | 34064 ft | 474 kts | 275° |
| 2026-04-29 17:43 | 55.81651 | -18.39794 | 34063 ft | 474 kts | 275° |
| 2026-04-29 17:43 | 55.82557 | -18.51378 | 34062 ft | 474 kts | 275° |
| 2026-04-29 17:44 | 55.83455 | -18.63008 | 34061 ft | 474 kts | 275° |
| 2026-04-29 17:44 | 55.84338 | -18.74590 | 34061 ft | 474 kts | 274° |
| 2026-04-29 17:45 | 55.85209 | -18.86172 | 34059 ft | 474 kts | 275° |
| 2026-04-29 17:45 | 55.86070 | -18.97765 | 34055 ft | 474 kts | 275° |
| 2026-04-29 17:46 | 55.86916 | -19.09299 | 34051 ft | 473 kts | 275° |
| 2026-04-29 17:46 | 55.87752 | -19.20858 | 34050 ft | 472 kts | 275° |
| 2026-04-29 17:47 | 55.88576 | -19.32400 | 34050 ft | 471 kts | 274° |
| 2026-04-29 17:47 | 55.89391 | -19.43965 | 34049 ft | 470 kts | 274° |
| 2026-04-29 17:48 | 55.90190 | -19.55473 | 34048 ft | 469 kts | 274° |
| 2026-04-29 17:48 | 55.90980 | -19.67017 | 34047 ft | 468 kts | 274° |
| 2026-04-29 17:49 | 55.91757 | -19.78507 | 34047 ft | 467 kts | 273° |
| 2026-04-29 17:49 | 55.92520 | -19.89978 | 34046 ft | 466 kts | 273° |
| 2026-04-29 17:50 | 55.93271 | -20.01421 | 34045 ft | 466 kts | 273° |
| 2026-04-29 17:50 | 55.94011 | -20.12886 | 34044 ft | 465 kts | 273° |
| 2026-04-29 17:51 | 55.94741 | -20.24334 | 34044 ft | 465 kts | 273° |
| 2026-04-29 17:51 | 55.95462 | -20.35809 | 34042 ft | 465 kts | 273° |
| 2026-04-29 17:52 | 55.96168 | -20.47239 | 34034 ft | 466 kts | 273° |
| 2026-04-29 17:52 | 55.96867 | -20.58741 | 34015 ft | 466 kts | 273° |